createdAt,value
2023-04-19T00:01:11.290Z,1.30
2023-04-19T00:04:15.517Z,1.50
2023-04-19T00:07:20.433Z,1.88
2023-04-19T00:10:23.969Z,1.85
2023-04-19T00:13:27.161Z,1.50
2023-04-19T00:16:30.607Z,1.38
2023-04-19T00:19:34.054Z,1.80
2023-04-19T00:22:37.889Z,1.70
2023-04-19T00:25:41.295Z,1.77
2023-04-19T00:28:44.588Z,1.70
2023-04-19T00:31:47.875Z,1.60
2023-04-19T00:34:51.151Z,1.90
2023-04-19T00:37:54.419Z,1.85
2023-04-19T00:41:02.611Z,1.83
2023-04-19T00:44:05.815Z,1.77
2023-04-19T00:47:09.677Z,2.00
2023-04-19T00:50:13.727Z,1.50
2023-04-19T00:53:17.153Z,1.70
2023-04-19T00:56:24.168Z,1.40
2023-04-19T00:59:32.192Z,1.70
2023-04-19T01:02:36.426Z,1.70
2023-04-19T01:05:40.041Z,1.90
2023-04-19T01:08:43.583Z,1.85
2023-04-19T01:11:46.948Z,1.60
2023-04-19T01:14:51.554Z,1.60
2023-04-19T01:17:56.207Z,1.90
2023-04-19T01:21:00.312Z,2.00
2023-04-19T01:24:03.988Z,1.88
2023-04-19T01:27:07.171Z,1.58
2023-04-19T01:30:10.897Z,2.20
2023-04-19T01:33:14.267Z,1.92
2023-04-19T01:36:17.531Z,1.87
2023-04-19T01:39:21.348Z,2.00
2023-04-19T01:42:24.689Z,1.70
2023-04-19T01:45:29.060Z,2.28
2023-04-19T01:48:32.361Z,1.92
2023-04-19T01:51:38.420Z,1.90
2023-04-19T01:54:42.389Z,2.25
2023-04-19T01:57:45.939Z,1.80
2023-04-19T02:00:49.179Z,1.90
2023-04-19T02:03:52.961Z,1.75
2023-04-19T02:06:56.499Z,2.00
2023-04-19T02:10:00.353Z,1.90
2023-04-19T02:13:03.721Z,2.00
2023-04-19T02:16:07.329Z,1.90
2023-04-19T02:19:10.923Z,1.60
2023-04-19T02:22:15.195Z,1.90
2023-04-19T02:25:19.491Z,2.05
2023-04-19T02:28:23.082Z,1.90
2023-04-19T02:31:26.404Z,1.95
2023-04-19T02:34:29.632Z,2.00
2023-04-19T02:37:32.979Z,1.70
2023-04-19T02:40:36.372Z,1.95
2023-04-19T02:43:39.749Z,1.98
2023-04-19T02:46:48.315Z,2.15
2023-04-19T02:49:51.635Z,1.95
2023-04-19T02:52:57.570Z,2.10
2023-04-19T02:56:02.200Z,1.85
2023-04-19T02:59:06.263Z,2.13
2023-04-19T03:02:10.435Z,2.30
2023-04-19T03:05:13.971Z,2.10
2023-04-19T03:08:17.554Z,1.80
2023-04-19T03:11:21.894Z,1.73
2023-04-19T03:14:25.444Z,1.90
2023-04-19T03:17:28.644Z,2.00
2023-04-19T03:20:32.085Z,1.88
2023-04-19T03:23:35.388Z,2.10
2023-04-19T03:26:38.851Z,2.00
2023-04-19T03:29:42.891Z,1.90
2023-04-19T03:32:48.438Z,2.25
2023-04-19T03:35:51.990Z,2.20
2023-04-19T03:38:55.807Z,2.10
2023-04-19T03:41:59.442Z,2.00
2023-04-19T03:45:12.460Z,2.33
2023-04-19T03:48:20.851Z,2.30
2023-04-19T03:51:24.316Z,2.10
2023-04-19T03:54:27.621Z,2.33
2023-04-19T03:57:31.308Z,2.20
2023-04-19T04:00:37.240Z,2.67
2023-04-19T04:03:40.964Z,2.42
2023-04-19T04:06:44.333Z,2.20
2023-04-19T04:09:50.730Z,2.28
2023-04-19T04:12:54.051Z,2.60
2023-04-19T04:16:04.298Z,2.00
2023-04-19T04:19:08.226Z,2.15
2023-04-19T04:22:15.639Z,2.60
2023-04-19T04:25:21.125Z,4.30
2023-04-19T04:28:26.751Z,3.00
2023-04-19T04:31:31.866Z,3.13
2023-04-19T04:34:36.775Z,3.13
2023-04-19T04:37:44.823Z,2.97
2023-04-19T04:40:55.767Z,2.97
2023-04-19T04:44:12.039Z,2.80
2023-04-19T04:47:15.965Z,2.78
2023-04-19T04:50:25.675Z,2.63
2023-04-19T04:53:29.918Z,3.40
2023-04-19T04:56:34.995Z,2.95
2023-04-19T04:59:40.463Z,2.80
2023-04-19T05:02:43.840Z,3.13
2023-04-19T05:05:47.977Z,2.65
2023-04-19T05:08:51.600Z,3.40
2023-04-19T05:12:06.759Z,2.85
2023-04-19T05:15:12.020Z,2.80
2023-04-19T05:18:19.316Z,3.22
2023-04-19T05:21:23.543Z,3.28
2023-04-19T05:24:30.751Z,3.20
2023-04-19T05:27:34.883Z,2.80
2023-04-19T05:30:39.368Z,2.85
2023-04-19T05:33:42.989Z,3.30
2023-04-19T05:36:46.807Z,3.40
2023-04-19T05:39:51.623Z,3.00
2023-04-19T05:42:55.375Z,3.17
2023-04-19T05:45:58.946Z,3.20
2023-04-19T05:49:03.247Z,3.00
2023-04-19T05:52:35.299Z,3.22
2023-04-19T05:55:39.877Z,3.50
2023-04-19T05:58:43.262Z,3.10
2023-04-19T06:01:46.806Z,3.38
2023-04-19T06:04:50.669Z,3.33
2023-04-19T06:08:02.713Z,3.20
2023-04-19T06:11:15.803Z,3.60
2023-04-19T06:14:29.566Z,4.35
2023-04-19T06:17:33.380Z,3.97
2023-04-19T06:20:38.114Z,3.40
2023-04-19T06:23:41.388Z,3.83
2023-04-19T06:26:44.841Z,3.80
2023-04-19T06:29:49.331Z,3.88
2023-04-19T06:32:58.528Z,3.92
2023-04-19T06:36:01.944Z,3.22
2023-04-19T06:39:05.620Z,4.00
2023-04-19T06:42:09.166Z,3.93
2023-04-19T06:45:12.655Z,4.00
2023-04-19T06:48:15.960Z,4.38
2023-04-19T06:51:19.141Z,3.25
2023-04-19T06:54:22.557Z,4.07
2023-04-19T06:57:26.116Z,4.00
2023-04-19T07:00:29.999Z,4.00
2023-04-19T07:03:33.408Z,3.88
2023-04-19T07:06:37.726Z,3.92
2023-04-19T07:09:41.350Z,3.92
2023-04-19T07:12:44.774Z,4.00
2023-04-19T07:15:48.062Z,4.03
2023-04-19T07:18:51.459Z,4.00
2023-04-19T07:21:54.915Z,4.03
2023-04-19T07:24:58.635Z,4.28
2023-04-19T07:28:01.812Z,3.97
2023-04-19T07:31:05.488Z,3.40
2023-04-19T07:34:09.286Z,3.60
2023-04-19T07:37:12.826Z,4.10
2023-04-19T07:40:16.098Z,3.90
2023-04-19T07:43:19.590Z,3.90
2023-04-19T07:46:23.054Z,3.67
2023-04-19T07:49:33.919Z,4.00
2023-04-19T07:52:37.716Z,3.85
2023-04-19T07:55:41.157Z,4.22
2023-04-19T07:58:46.747Z,3.90
2023-04-19T08:01:54.523Z,3.70
2023-04-19T08:04:58.081Z,4.18
2023-04-19T08:08:01.551Z,3.88
2023-04-19T08:11:06.390Z,4.07
2023-04-19T08:14:18.661Z,3.77
2023-04-19T08:20:38.548Z,3.80
2023-04-19T08:23:48.366Z,4.63
2023-04-19T08:26:55.238Z,3.90
2023-04-19T08:30:04.957Z,4.10
2023-04-19T08:33:08.550Z,3.80
2023-04-19T08:36:16.966Z,3.80
2023-04-19T08:39:32.491Z,4.05
2023-04-19T08:42:37.491Z,3.67
2023-04-19T08:45:41.255Z,3.43
2023-04-19T08:48:46.384Z,2.53
2023-04-19T08:51:50.554Z,2.65
2023-04-19T08:54:55.031Z,3.00
2023-04-19T08:58:01.704Z,2.17
2023-04-19T09:01:19.852Z,2.53
2023-04-19T09:04:35.622Z,2.50
2023-04-19T09:07:40.733Z,3.10
2023-04-19T09:10:54.578Z,2.92
2023-04-19T09:14:18.939Z,3.03
2023-04-19T09:17:25.499Z,3.00
2023-04-19T09:20:46.459Z,3.00
2023-04-19T09:23:51.557Z,3.58
2023-04-19T09:26:57.962Z,3.17
2023-04-19T09:30:03.682Z,3.15
2023-04-19T09:33:08.164Z,3.73
2023-04-19T09:36:27.091Z,3.30
2023-04-19T09:39:32.826Z,3.75
2023-04-19T09:45:53.503Z,4.35
2023-04-19T09:49:30.229Z,4.10
2023-04-19T09:52:45.585Z,3.50
2023-04-19T09:56:00.606Z,2.97
2023-04-19T09:59:20.449Z,3.30
2023-04-19T10:02:26.468Z,3.50
2023-04-19T10:05:31.022Z,3.60
2023-04-19T10:08:37.915Z,4.40
2023-04-19T10:11:50.169Z,3.85
2023-04-19T10:14:58.323Z,2.80
2023-04-19T10:18:02.655Z,2.80
2023-04-19T10:21:10.604Z,3.07
2023-04-19T10:24:18.638Z,2.47
2023-04-19T10:27:26.556Z,2.75
2023-04-19T10:30:33.300Z,2.83
2023-04-19T10:33:40.147Z,2.65
2023-04-19T10:36:46.576Z,2.60
2023-04-19T10:39:50.707Z,2.60
2023-04-19T10:43:15.335Z,2.88
2023-04-19T10:46:21.462Z,2.70
2023-04-19T10:49:28.200Z,2.83
2023-04-19T10:52:31.451Z,3.23
2023-04-19T10:55:34.864Z,2.40
2023-04-19T10:59:00.157Z,2.88
2023-04-19T11:02:25.361Z,2.60
2023-04-19T11:05:28.784Z,2.58
2023-04-19T11:08:32.561Z,2.57
2023-04-19T11:11:36.443Z,2.60
2023-04-19T11:14:44.763Z,2.30
2023-04-19T11:18:00.859Z,2.50
2023-04-19T11:21:21.433Z,2.05
2023-04-19T11:24:24.700Z,2.33
2023-04-19T11:27:28.047Z,2.27
2023-04-19T11:30:32.421Z,2.10
2023-04-19T11:33:37.678Z,2.30
2023-04-19T11:36:52.297Z,2.40
2023-04-19T11:39:55.953Z,2.50
2023-04-19T11:43:01.177Z,2.40
2023-04-19T11:46:14.333Z,2.40
2023-04-19T11:49:30.760Z,2.70
2023-04-19T11:52:36.197Z,2.40
2023-04-19T11:55:42.042Z,2.43
2023-04-19T11:58:49.030Z,2.50
2023-04-19T12:01:52.372Z,2.50
2023-04-19T12:05:08.403Z,2.70
2023-04-19T12:08:12.324Z,2.53
2023-04-19T12:11:17.133Z,2.60
2023-04-19T12:14:23.004Z,2.70
2023-04-19T12:17:26.424Z,3.42
2023-04-19T12:20:33.143Z,2.92
2023-04-19T12:23:36.919Z,3.70
2023-04-19T12:27:04.244Z,3.90
2023-04-19T12:30:09.925Z,3.73
2023-04-19T12:33:13.686Z,3.58
2023-04-19T12:36:17.075Z,3.50
2023-04-19T12:39:20.511Z,3.15
2023-04-19T12:42:24.215Z,3.73
2023-04-19T12:45:27.559Z,3.00
2023-04-19T12:48:30.796Z,3.20
2023-04-19T12:51:36.291Z,3.30
2023-04-19T12:54:39.532Z,3.38
2023-04-19T12:57:43.372Z,3.10
2023-04-19T13:00:46.980Z,3.03
2023-04-19T13:03:50.994Z,3.20
2023-04-19T13:06:54.437Z,3.58
2023-04-19T13:09:57.860Z,3.30
2023-04-19T13:13:02.383Z,3.10
2023-04-19T13:16:08.090Z,3.63
2023-04-19T13:19:12.564Z,3.50
2023-04-19T13:22:21.836Z,3.60
2023-04-19T13:25:25.936Z,3.78
2023-04-19T13:28:30.426Z,3.63
2023-04-19T13:31:34.198Z,4.23
2023-04-19T13:34:37.796Z,4.07
2023-04-19T13:37:42.442Z,3.83
2023-04-19T13:40:46.050Z,3.85
2023-04-19T13:43:49.462Z,4.10
2023-04-19T13:46:52.871Z,4.10
2023-04-19T13:49:56.281Z,6.57
2023-04-19T13:52:59.917Z,4.72
2023-04-19T13:56:03.985Z,4.80
2023-04-19T13:59:07.473Z,5.47
2023-04-19T14:02:10.810Z,4.67
2023-04-19T14:05:14.300Z,4.70
2023-04-19T14:08:17.637Z,4.65
2023-04-19T14:11:21.336Z,4.47
2023-04-19T14:14:24.605Z,4.10
2023-04-19T14:17:27.939Z,4.03
2023-04-19T14:20:31.445Z,5.07
2023-04-19T14:23:35.269Z,4.18
2023-04-19T14:26:38.508Z,4.40
2023-04-19T14:29:41.882Z,4.23
2023-04-19T14:32:45.327Z,4.40
2023-04-19T14:35:48.836Z,4.55
2023-04-19T14:38:52.846Z,3.83
2023-04-19T14:41:57.732Z,3.78
2023-04-19T14:45:01.060Z,4.43
2023-04-19T14:48:04.541Z,4.57
2023-04-19T14:51:07.805Z,4.03
2023-04-19T14:54:11.235Z,4.13
2023-04-19T14:57:14.779Z,4.07
2023-04-19T15:00:18.568Z,4.70
2023-04-19T15:03:22.201Z,4.47
2023-04-19T15:06:25.925Z,4.05
2023-04-19T15:09:29.191Z,4.13
2023-04-19T15:12:32.573Z,4.32
2023-04-19T15:15:35.804Z,4.40
2023-04-19T15:18:39.189Z,4.40
2023-04-19T15:21:42.854Z,4.32
2023-04-19T15:24:46.081Z,4.22
2023-04-19T15:27:49.417Z,4.50
2023-04-19T15:31:02.289Z,4.43
2023-04-19T15:34:05.607Z,4.97
2023-04-19T15:37:09.595Z,4.63
2023-04-19T15:40:14.403Z,5.18
2023-04-19T15:43:17.853Z,4.80
2023-04-19T15:46:21.108Z,4.90
2023-04-19T15:49:24.477Z,4.70
2023-04-19T15:52:27.717Z,4.70
2023-04-19T15:55:31.552Z,5.22
2023-04-19T15:58:34.876Z,4.80
2023-04-19T16:01:38.356Z,5.00
2023-04-19T16:04:41.701Z,5.00
2023-04-19T16:07:45.393Z,4.53
2023-04-19T16:10:49.416Z,5.03
2023-04-19T16:13:53.065Z,5.40
2023-04-19T16:16:56.375Z,5.23
2023-04-19T16:20:00.132Z,4.53
2023-04-19T16:23:03.554Z,4.78
2023-04-19T16:26:07.810Z,4.72
2023-04-19T16:29:11.028Z,4.63
2023-04-19T16:32:14.357Z,5.37
2023-04-19T16:35:18.374Z,5.17
2023-04-19T16:38:21.769Z,4.88
2023-04-19T16:41:25.110Z,4.72
2023-04-19T16:44:28.363Z,4.93
2023-04-19T16:47:32.079Z,4.43
2023-04-19T16:50:35.654Z,5.87
2023-04-19T16:53:42.823Z,4.90
2023-04-19T16:56:46.208Z,4.97
2023-04-19T16:59:49.604Z,5.20
2023-04-19T17:02:53.872Z,5.40
2023-04-19T17:05:59.105Z,5.10
2023-04-19T17:09:05.192Z,5.50
2023-04-19T17:12:08.588Z,6.20
2023-04-19T17:15:12.097Z,6.22
2023-04-19T17:18:15.566Z,5.33
2023-04-19T17:21:18.866Z,5.70
2023-04-19T17:24:23.176Z,6.47
2023-04-19T17:27:26.475Z,7.00
2023-04-19T17:30:29.786Z,7.07
2023-04-19T17:33:33.105Z,6.40
2023-04-19T17:36:36.676Z,5.80
2023-04-19T17:39:40.602Z,5.72
2023-04-19T17:42:44.149Z,6.55
2023-04-19T17:45:47.709Z,5.65
2023-04-19T17:48:51.657Z,6.17
2023-04-19T17:51:56.813Z,6.00
2023-04-19T17:55:00.894Z,6.53
2023-04-19T17:58:04.179Z,6.60
2023-04-19T18:01:08.871Z,6.40
2023-04-19T18:04:17.426Z,7.00
2023-04-19T18:07:21.261Z,7.63
2023-04-19T18:10:24.766Z,7.30
2023-04-19T18:13:28.911Z,6.80
2023-04-19T18:16:33.057Z,6.30
2023-04-19T18:19:37.639Z,6.53
2023-04-19T18:22:41.057Z,6.83
2023-04-19T18:25:44.336Z,6.78
2023-04-19T18:28:48.468Z,6.70
2023-04-19T18:31:53.089Z,6.85
2023-04-19T18:34:56.748Z,7.10
2023-04-19T18:38:00.247Z,7.47
2023-04-19T18:41:04.324Z,6.53
2023-04-19T18:44:34.897Z,7.35
2023-04-19T18:47:31.886Z,6.38
2023-04-19T18:50:36.510Z,6.40
2023-04-19T18:53:41.060Z,6.73
2023-04-19T18:59:52.113Z,6.57
2023-04-19T19:02:58.005Z,6.55
2023-04-19T19:06:03.014Z,6.27
2023-04-19T19:09:06.959Z,7.10
2023-04-19T19:12:10.968Z,7.45
2023-04-19T19:15:15.590Z,7.05
2023-04-19T19:18:19.413Z,7.40
2023-04-19T19:21:23.000Z,6.97
2023-04-19T19:24:26.448Z,6.30
2023-04-19T19:27:30.205Z,6.63
2023-04-19T19:30:34.749Z,6.32
2023-04-19T19:33:40.815Z,6.45
2023-04-19T19:36:44.757Z,6.37
2023-04-19T19:39:48.343Z,6.43
2023-04-19T19:42:51.902Z,7.20
2023-04-19T19:45:55.632Z,7.45
2023-04-19T19:48:58.997Z,8.45
2023-04-19T19:52:02.585Z,8.37
2023-04-19T19:55:08.509Z,7.73
2023-04-19T19:58:39.263Z,7.18
2023-04-19T20:01:35.527Z,6.95
2023-04-19T20:04:39.460Z,7.38
2023-04-19T20:08:01.210Z,7.27
2023-04-19T20:11:06.437Z,7.50
2023-04-19T20:14:10.051Z,7.53
2023-04-19T20:17:13.258Z,6.75
2023-04-19T20:20:16.942Z,6.72
2023-04-19T20:23:21.740Z,7.20
2023-04-19T20:26:25.733Z,6.73
2023-04-19T20:29:29.671Z,6.50
2023-04-19T20:32:33.686Z,7.22
2023-04-19T20:35:37.303Z,7.43
2023-04-19T20:38:52.385Z,7.13
2023-04-19T20:41:56.291Z,7.67
2023-04-19T20:44:59.598Z,7.88
2023-04-19T20:48:03.671Z,7.97
2023-04-19T20:51:07.412Z,7.55
2023-04-19T20:54:11.024Z,7.87
2023-04-19T20:57:15.335Z,8.50
2023-04-19T21:00:19.081Z,7.78
2023-04-19T21:03:22.444Z,8.00
2023-04-19T21:06:26.999Z,7.50
2023-04-19T21:09:30.742Z,7.20
2023-04-19T21:12:34.922Z,7.40
2023-04-19T21:15:38.189Z,8.38
2023-04-19T21:18:41.780Z,8.95
2023-04-19T21:21:45.420Z,8.90
2023-04-19T21:24:48.646Z,9.57
2023-04-19T21:27:51.874Z,8.70
2023-04-19T21:30:55.457Z,9.05
2023-04-19T21:33:59.198Z,9.80
2023-04-19T21:37:02.480Z,9.32
2023-04-19T21:40:06.622Z,7.63
2023-04-19T21:43:09.934Z,9.07
2023-04-19T21:46:13.345Z,9.38
2023-04-19T21:49:16.897Z,8.95
2023-04-19T21:52:21.241Z,8.65
2023-04-19T21:55:24.610Z,9.47
2023-04-19T21:58:28.137Z,10.17
2023-04-19T22:01:36.610Z,9.38
2023-04-19T22:04:41.630Z,10.20
2023-04-19T22:07:45.150Z,7.82
2023-04-19T22:10:50.526Z,9.30
2023-04-19T22:13:54.252Z,10.00
2023-04-19T22:16:59.860Z,9.80
2023-04-19T22:20:06.312Z,9.93
2023-04-19T22:23:09.714Z,10.63
2023-04-19T22:26:12.985Z,10.03
2023-04-19T22:29:17.626Z,10.40
2023-04-19T22:32:21.166Z,9.57
2023-04-19T22:35:24.487Z,10.32
2023-04-19T22:38:27.815Z,10.35
2023-04-19T22:41:31.204Z,10.17
2023-04-19T22:44:34.620Z,10.68
2023-04-19T22:47:37.906Z,10.82
2023-04-19T22:50:44.332Z,11.45
2023-04-19T22:53:47.575Z,11.20
2023-04-19T22:56:51.185Z,11.23
2023-04-19T22:59:54.400Z,11.07
2023-04-19T23:03:00.950Z,10.38
2023-04-19T23:06:04.827Z,10.95
2023-04-19T23:09:11.088Z,10.90
2023-04-19T23:12:15.813Z,10.43
2023-04-19T23:15:19.365Z,10.95
2023-04-19T23:18:22.576Z,11.30
2023-04-19T23:21:25.982Z,10.23
2023-04-19T23:24:29.371Z,11.10
2023-04-19T23:27:36.256Z,10.87
2023-04-19T23:30:39.576Z,10.70
2023-04-19T23:33:42.863Z,11.10
2023-04-19T23:36:46.098Z,10.50
2023-04-19T23:39:49.575Z,12.82
2023-04-19T23:42:52.882Z,10.07
2023-04-19T23:45:56.332Z,12.18
2023-04-19T23:48:59.677Z,10.50
2023-04-19T23:52:06.050Z,11.32
2023-04-19T23:55:10.024Z,11.43
2023-04-19T23:58:13.199Z,14.03
